Kingston, Iowa
Current Conditions -  °F | °C
As of 11:53 AM on Thursday 29 Jan 2015 (Local Time) from KBRL Reporting Station
Overcast Overcast  
Wind Chill: 26°   Ceiling: 1600
Heat Index: 36°   Visibility: 10mi
Dew Point: 31°   Wind: 18mph
Humidity: 82%   Direction: 310°NW
Pressure: 30.13"   Gusts: 37mph
Location:  41.0155°N, 91.1055°W
Report Text: KBRL 291753Z AUTO 31016G32KT 10SM OVC016 02/M01 A3013 RMK AO2 PK WND 31032/1749 SLP209 T00221006 10028 20022 51029
Loading
Personal Weather Stations






























Interactive Weather Map New forecast layout! Learn more

10-Day Weather Forecast

Advertisements
Track Severe Weather on mobile